Corning, Arkansas
Current Conditions -  °F | °C
As of 12:55 PM on Friday 24 Oct 2014 (Local Time) from K4M9 Reporting Station
NA  
Wind Chill: 66°   Ceiling: NA
Heat Index: 66°   Visibility: 10mi
Dew Point: 57°   Wind: 7mph
Humidity: 73%   Direction: 320°NW
Pressure: 30.13"   Gusts: NA
Location:  36.41°N, 90.58°W
Report Text: K4M9 241755Z AUTO 32006KT 10SM 19/14 A3013 RMK AO2
Loading
Personal Weather Stations






























Interactive Weather Map
Tropical Storm Tracking
New forecast layout! Learn more

10-Day Weather Forecast

Advertisements
Track Severe Weather on mobile